createdAt,value
2022-11-24T00:00:09.366Z,15.53
2022-11-24T00:03:13.236Z,13.90
2022-11-24T00:06:17.217Z,18.70
2022-11-24T00:09:21.445Z,14.50
2022-11-24T00:12:25.050Z,13.02
2022-11-24T00:15:28.620Z,15.27
2022-11-24T00:18:32.210Z,14.93
2022-11-24T00:21:36.104Z,16.48
2022-11-24T00:24:39.474Z,16.65
2022-11-24T00:27:43.038Z,19.33
2022-11-24T00:30:46.506Z,15.57
2022-11-24T00:33:52.692Z,19.48
2022-11-24T00:36:56.106Z,18.88
2022-11-24T00:39:59.504Z,16.95
2022-11-24T00:43:03.777Z,17.48
2022-11-24T00:46:07.317Z,17.60
2022-11-24T00:49:11.277Z,19.42
2022-11-24T00:52:14.640Z,21.05
2022-11-24T00:55:17.885Z,19.88
2022-11-24T00:58:22.203Z,17.98
2022-11-24T01:01:27.872Z,18.80
2022-11-24T01:04:31.711Z,18.38
2022-11-24T01:07:35.878Z,17.40
2022-11-24T01:10:40.365Z,18.90
2022-11-24T01:13:46.293Z,19.38
2022-11-24T01:16:49.693Z,18.00
2022-11-24T01:19:52.998Z,20.17
2022-11-24T01:22:56.430Z,19.27
2022-11-24T01:25:59.738Z,18.25
2022-11-24T01:29:03.225Z,19.75
2022-11-24T01:32:06.767Z,19.20
2022-11-24T01:35:10.501Z,29.42
2022-11-24T01:38:13.823Z,24.92
2022-11-24T01:41:21.037Z,26.08
2022-11-24T01:44:29.251Z,28.27
2022-11-24T01:47:40.808Z,21.83
2022-11-24T01:50:44.640Z,21.30
2022-11-24T01:53:57.630Z,20.17
2022-11-24T01:57:10.431Z,18.15
2022-11-24T02:00:15.267Z,18.25
2022-11-24T02:03:28.243Z,15.23
2022-11-24T02:06:33.402Z,24.40
2022-11-24T02:09:54.341Z,18.98
2022-11-24T02:12:59.637Z,17.60
2022-11-24T02:16:05.658Z,17.30
2022-11-24T02:19:21.764Z,18.93
2022-11-24T02:22:34.066Z,19.25
2022-11-24T02:26:08.428Z,19.92
2022-11-24T02:29:14.145Z,19.65
2022-11-24T02:32:18.404Z,18.30
2022-11-24T02:35:22.318Z,21.07
2022-11-24T02:38:34.122Z,20.52
2022-11-24T02:41:37.857Z,20.42
2022-11-24T02:44:47.990Z,19.42
2022-11-24T02:47:51.443Z,19.17
2022-11-24T02:50:55.158Z,17.00
2022-11-24T02:53:58.459Z,18.50
2022-11-24T02:57:01.831Z,18.20
2022-11-24T03:00:05.698Z,17.48
2022-11-24T03:03:09.384Z,18.48
2022-11-24T03:06:12.734Z,20.73
2022-11-24T03:09:16.099Z,18.25
2022-11-24T03:12:19.561Z,19.05
2022-11-24T03:15:23.903Z,18.15
2022-11-24T03:18:27.272Z,17.90
2022-11-24T03:21:30.672Z,18.13
2022-11-24T03:24:34.315Z,19.23
2022-11-24T03:27:37.985Z,20.38
2022-11-24T03:30:41.344Z,18.50
2022-11-24T03:33:44.654Z,20.77
2022-11-24T03:36:47.941Z,20.53
2022-11-24T03:39:51.287Z,18.70
2022-11-24T03:42:54.718Z,20.60
2022-11-24T03:45:58.168Z,25.40
2022-11-24T03:49:01.630Z,26.30
2022-11-24T03:52:07.991Z,24.07
2022-11-24T03:55:11.399Z,24.70
2022-11-24T03:58:14.952Z,19.48
2022-11-24T04:01:18.633Z,24.77
2022-11-24T04:04:22.093Z,21.08
2022-11-24T04:07:25.472Z,25.07
2022-11-24T04:10:28.978Z,20.98
2022-11-24T04:13:32.428Z,22.13
2022-11-24T04:16:35.877Z,24.23
2022-11-24T04:19:39.177Z,23.63
2022-11-24T04:22:43.068Z,23.93
2022-11-24T04:25:46.504Z,21.80
2022-11-24T04:28:49.955Z,26.90
2022-11-24T04:31:53.300Z,23.45
2022-11-24T04:34:56.675Z,26.95
2022-11-24T04:38:03.221Z,23.63
2022-11-24T04:41:06.688Z,21.80
2022-11-24T04:44:10.023Z,25.60
2022-11-24T04:47:21.830Z,24.05
2022-11-24T04:50:25.359Z,25.05
2022-11-24T04:53:28.634Z,20.90
2022-11-24T04:56:32.005Z,20.85
2022-11-24T04:59:35.462Z,23.67
2022-11-24T05:02:38.871Z,20.77
2022-11-24T05:05:50.685Z,23.25
2022-11-24T05:08:54.084Z,25.33
2022-11-24T05:11:57.623Z,22.75
2022-11-24T05:15:05.615Z,20.40
2022-11-24T05:18:17.927Z,21.13
2022-11-24T05:21:21.306Z,23.10
2022-11-24T05:24:24.661Z,22.43
2022-11-24T05:27:28.086Z,21.20
2022-11-24T05:30:32.431Z,25.70
2022-11-24T05:33:37.102Z,23.55
2022-11-24T05:36:53.021Z,23.52
2022-11-24T05:39:56.478Z,20.30
2022-11-24T05:42:59.924Z,21.60
2022-11-24T05:46:03.470Z,22.73
2022-11-24T05:49:06.878Z,23.38
2022-11-24T05:52:10.791Z,25.27
2022-11-24T05:55:15.332Z,22.87
2022-11-24T05:58:18.824Z,21.60
2022-11-24T06:01:22.270Z,24.33
2022-11-24T06:04:25.618Z,26.38
2022-11-24T06:07:29.103Z,35.50
2022-11-24T06:10:32.648Z,29.37
2022-11-24T06:13:36.314Z,25.80
2022-11-24T06:16:40.149Z,28.63
2022-11-24T06:19:46.666Z,27.10
2022-11-24T06:22:50.420Z,28.77
2022-11-24T06:25:53.799Z,26.50
2022-11-24T06:28:57.265Z,24.52
2022-11-24T06:32:00.660Z,23.67
2022-11-24T06:35:04.976Z,24.92
2022-11-24T06:38:08.676Z,21.90
2022-11-24T06:41:16.461Z,24.23
2022-11-24T06:44:20.287Z,31.63
2022-11-24T06:47:23.702Z,41.58
2022-11-24T06:50:33.557Z,69.10
2022-11-24T06:53:39.197Z,54.63
2022-11-24T06:56:42.707Z,23.27
2022-11-24T06:59:46.644Z,20.95
2022-11-24T07:02:50.380Z,15.20
2022-11-24T07:06:00.531Z,12.70
2022-11-24T07:09:04.015Z,7.72
2022-11-24T07:12:07.728Z,11.53
2022-11-24T07:15:11.593Z,19.20
2022-11-24T07:18:15.528Z,21.13
2022-11-24T07:21:21.052Z,23.80
2022-11-24T07:24:24.471Z,17.48
2022-11-24T07:27:28.547Z,12.37
2022-11-24T07:30:32.171Z,9.65
2022-11-24T07:33:36.217Z,7.90
2022-11-24T07:36:39.634Z,9.50
2022-11-24T07:39:43.269Z,10.07
2022-11-24T07:42:46.748Z,9.77
2022-11-24T07:45:53.467Z,10.27
2022-11-24T07:48:56.921Z,11.23
2022-11-24T07:52:01.141Z,12.45
2022-11-24T07:55:05.675Z,12.27
2022-11-24T07:58:09.161Z,11.10
2022-11-24T08:01:17.964Z,13.82
2022-11-24T08:04:21.556Z,17.10
2022-11-24T08:07:25.058Z,14.35
2022-11-24T08:10:28.479Z,10.90
2022-11-24T08:13:31.784Z,13.53
2022-11-24T08:16:35.191Z,11.13
2022-11-24T08:19:39.445Z,8.82
2022-11-24T08:22:43.090Z,8.00
2022-11-24T08:25:46.400Z,10.40
2022-11-24T08:28:54.837Z,10.97
2022-11-24T08:31:58.945Z,10.70
2022-11-24T08:35:14.054Z,9.50
2022-11-24T08:38:17.863Z,7.85
2022-11-24T08:41:21.277Z,9.27
2022-11-24T08:44:25.242Z,11.20
2022-11-24T08:47:29.315Z,18.83
2022-11-24T08:50:35.655Z,8.65
2022-11-24T08:53:40.251Z,10.18
2022-11-24T08:56:43.698Z,23.52
2022-11-24T08:59:47.461Z,23.53
2022-11-24T09:02:57.102Z,24.65
2022-11-24T09:06:00.689Z,25.85
2022-11-24T09:09:04.204Z,31.25
2022-11-24T09:12:14.351Z,35.15
2022-11-24T09:15:20.389Z,31.00
2022-11-24T09:18:28.856Z,35.47
2022-11-24T09:21:38.046Z,39.03
2022-11-24T09:24:41.740Z,35.92
2022-11-24T09:27:45.232Z,30.60
2022-11-24T09:30:48.744Z,30.00
2022-11-24T09:33:53.533Z,31.90
2022-11-24T09:36:58.818Z,33.40
2022-11-24T09:40:02.188Z,29.48
2022-11-24T09:43:34.143Z,29.80
2022-11-24T09:46:56.145Z,29.97
2022-11-24T09:50:13.102Z,30.00
2022-11-24T09:53:29.734Z,37.55
2022-11-24T09:56:38.312Z,34.78
2022-11-24T09:59:42.331Z,40.28
2022-11-24T10:02:48.624Z,37.27
2022-11-24T10:05:55.032Z,38.83
2022-11-24T10:09:29.073Z,33.72
2022-11-24T10:13:00.968Z,31.77
2022-11-24T10:16:09.400Z,34.28
2022-11-24T10:19:37.156Z,35.13
2022-11-24T10:22:40.980Z,34.10
2022-11-24T10:26:00.559Z,32.25
2022-11-24T10:29:16.499Z,33.13
2022-11-24T10:32:26.726Z,32.22
2022-11-24T10:35:45.484Z,33.93
2022-11-24T10:38:59.671Z,33.80
2022-11-24T10:42:12.000Z,31.17
2022-11-24T10:45:18.559Z,32.22
2022-11-24T10:48:37.098Z,32.42
2022-11-24T10:52:06.033Z,31.13
2022-11-24T10:55:10.120Z,32.10
2022-11-24T10:58:17.733Z,34.70
2022-11-24T11:01:32.239Z,31.85
2022-11-24T11:04:36.803Z,33.72
2022-11-24T11:07:40.292Z,31.87
2022-11-24T11:10:45.118Z,33.63
2022-11-24T11:14:01.533Z,35.25
2022-11-24T11:17:45.837Z,34.65
2022-11-24T11:20:57.075Z,31.67
2022-11-24T11:24:02.411Z,34.27
2022-11-24T11:27:18.143Z,32.35
2022-11-24T11:34:06.426Z,33.97
2022-11-24T11:37:14.859Z,31.90
2022-11-24T11:40:24.147Z,33.00
2022-11-24T11:43:34.991Z,33.72
2022-11-24T11:46:38.470Z,36.17
2022-11-24T11:49:42.298Z,33.28
2022-11-24T11:53:33.217Z,37.00
2022-11-24T11:56:45.312Z,32.40
2022-11-24T12:00:07.982Z,33.05
2022-11-24T12:03:29.988Z,33.80
2022-11-24T12:06:58.935Z,34.42
2022-11-24T12:10:21.095Z,36.80
2022-11-24T12:13:36.572Z,45.90
2022-11-24T12:16:45.800Z,33.75
2022-11-24T12:20:23.223Z,29.67
2022-11-24T12:23:44.915Z,29.55
2022-11-24T12:27:23.192Z,34.63
2022-11-24T12:30:36.895Z,29.70
2022-11-24T12:34:19.223Z,32.95
2022-11-24T12:37:28.646Z,35.88
2022-11-24T12:41:33.797Z,28.80
2022-11-24T12:45:06.235Z,33.33
2022-11-24T12:48:25.036Z,30.97
2022-11-24T12:51:34.614Z,30.13
2022-11-24T12:54:41.151Z,29.58
2022-11-24T12:58:11.078Z,27.27
2022-11-24T13:01:30.238Z,31.40
2022-11-24T13:04:42.294Z,35.80
2022-11-24T13:07:56.237Z,37.80
2022-11-24T13:11:21.564Z,32.95
2022-11-24T13:14:38.214Z,24.92
2022-11-24T13:18:01.414Z,25.45
2022-11-24T13:21:25.394Z,29.47
2022-11-24T13:24:36.342Z,25.50
2022-11-24T13:27:42.857Z,25.42
2022-11-24T13:30:46.219Z,23.88
2022-11-24T13:33:49.849Z,27.55
2022-11-24T13:36:54.466Z,23.60
2022-11-24T13:40:04.753Z,27.02
2022-11-24T13:43:10.864Z,29.48
2022-11-24T13:46:14.246Z,26.17
2022-11-24T13:49:21.537Z,24.67
2022-11-24T13:52:39.951Z,25.00
2022-11-24T13:56:00.675Z,23.67
2022-11-24T13:59:30.954Z,23.77
2022-11-24T14:02:34.775Z,24.67
2022-11-24T14:05:44.458Z,23.58
2022-11-24T14:08:49.080Z,24.10
2022-11-24T14:12:18.004Z,22.73
2022-11-24T14:15:29.524Z,24.85
2022-11-24T14:18:34.260Z,20.25
2022-11-24T14:21:44.404Z,20.23
2022-11-24T14:25:20.056Z,21.53
2022-11-24T14:28:26.120Z,20.70
2022-11-24T14:31:29.757Z,22.02
2022-11-24T14:34:36.343Z,24.75
2022-11-24T14:37:40.004Z,19.95
2022-11-24T14:40:54.824Z,20.20
2022-11-24T14:44:18.141Z,24.10
2022-11-24T14:47:30.890Z,24.40
2022-11-24T14:50:35.599Z,27.33
2022-11-24T14:53:43.212Z,40.42
2022-11-24T14:57:01.182Z,33.53
2022-11-24T15:00:29.708Z,30.73
2022-11-24T15:03:33.535Z,28.42
2022-11-24T15:06:37.088Z,25.98
2022-11-24T15:09:43.216Z,28.88
2022-11-24T15:12:54.690Z,27.73
2022-11-24T15:16:03.439Z,25.30
2022-11-24T15:19:15.988Z,24.00
2022-11-24T15:22:40.836Z,26.88
2022-11-24T15:25:44.338Z,29.52
2022-11-24T15:28:47.880Z,25.13
2022-11-24T15:31:52.986Z,27.10
2022-11-24T15:34:56.603Z,28.35
2022-11-24T15:38:00.032Z,28.15
2022-11-24T15:41:14.010Z,28.25
2022-11-24T15:44:17.366Z,30.13
2022-11-24T15:47:20.706Z,30.60
2022-11-24T15:50:24.247Z,30.13
2022-11-24T15:53:54.109Z,27.50
2022-11-24T15:57:00.556Z,23.85
2022-11-24T16:00:04.443Z,26.63
2022-11-24T16:03:45.710Z,26.15
2022-11-24T16:06:38.795Z,45.67
2022-11-24T16:09:42.151Z,33.88
2022-11-24T16:12:45.496Z,32.75
2022-11-24T16:15:48.835Z,25.13
2022-11-24T16:18:52.569Z,31.10
2022-11-24T16:21:56.165Z,28.58
2022-11-24T16:24:59.694Z,28.42
2022-11-24T16:28:03.026Z,29.27
2022-11-24T16:31:06.929Z,23.87
2022-11-24T16:34:10.455Z,24.15
2022-11-24T16:37:13.993Z,26.25
2022-11-24T16:40:18.342Z,23.48
2022-11-24T16:43:22.120Z,26.75
2022-11-24T16:46:26.146Z,21.67
2022-11-24T16:49:29.606Z,28.55
2022-11-24T16:52:33.048Z,40.45
2022-11-24T16:55:36.507Z,39.88
2022-11-24T16:58:41.261Z,37.53
2022-11-24T17:01:46.666Z,37.97
2022-11-24T17:04:52.542Z,29.20
2022-11-24T17:07:55.996Z,27.88
2022-11-24T17:11:06.637Z,29.33
2022-11-24T17:14:11.383Z,35.55
2022-11-24T17:17:14.724Z,28.57
2022-11-24T17:20:18.471Z,28.80
2022-11-24T17:23:22.074Z,28.70
2022-11-24T17:26:26.523Z,31.60
2022-11-24T17:29:30.187Z,25.15
2022-11-24T17:32:33.817Z,31.27
2022-11-24T17:35:37.793Z,30.67
2022-11-24T17:38:41.531Z,32.53
2022-11-24T17:41:45.433Z,29.58
2022-11-24T17:44:49.216Z,32.38
2022-11-24T17:47:52.954Z,34.80
2022-11-24T17:51:17.589Z,27.33
2022-11-24T17:54:45.237Z,24.95
2022-11-24T17:57:45.337Z,26.75
2022-11-24T18:00:51.721Z,29.45
2022-11-24T18:03:55.440Z,35.53
2022-11-24T18:06:59.131Z,36.92
2022-11-24T18:10:03.357Z,37.85
2022-11-24T18:13:07.039Z,24.60
2022-11-24T18:16:16.860Z,28.20
2022-11-24T18:19:21.561Z,31.50
2022-11-24T18:22:50.156Z,25.38
2022-11-24T18:25:56.151Z,30.95
2022-11-24T18:28:59.908Z,27.42
2022-11-24T18:32:03.803Z,28.70
2022-11-24T18:35:07.823Z,29.87
2022-11-24T18:38:12.123Z,37.72
2022-11-24T18:41:16.239Z,41.00
2022-11-24T18:44:19.735Z,41.88
2022-11-24T18:47:23.637Z,36.67
2022-11-24T18:50:27.376Z,58.27
2022-11-24T18:53:31.175Z,47.72
2022-11-24T18:56:34.529Z,39.75
2022-11-24T18:59:37.942Z,29.55
2022-11-24T19:02:41.868Z,32.88
2022-11-24T19:05:46.199Z,25.10
2022-11-24T19:08:53.618Z,30.15
2022-11-24T19:11:57.457Z,23.80
2022-11-24T19:15:01.143Z,25.02
2022-11-24T19:18:05.141Z,35.92
2022-11-24T19:21:09.439Z,32.50
2022-11-24T19:24:13.632Z,34.13
2022-11-24T19:27:18.638Z,36.08
2022-11-24T19:30:22.491Z,30.08
2022-11-24T19:33:26.130Z,29.10
2022-11-24T19:36:31.050Z,31.83
2022-11-24T19:39:34.484Z,31.42
2022-11-24T19:42:38.172Z,27.20
2022-11-24T19:45:44.409Z,26.42
2022-11-24T19:48:59.059Z,27.83
2022-11-24T19:52:02.808Z,27.33
2022-11-24T19:55:06.840Z,28.10
2022-11-24T19:58:10.355Z,33.33
2022-11-24T20:01:14.184Z,34.22
2022-11-24T20:04:18.515Z,35.22
2022-11-24T20:07:22.318Z,32.63
2022-11-24T20:10:26.154Z,24.88
2022-11-24T20:13:29.937Z,27.58
2022-11-24T20:16:35.331Z,22.67
2022-11-24T20:19:39.315Z,19.67
2022-11-24T20:22:42.964Z,23.37
2022-11-24T20:25:46.613Z,20.80
2022-11-24T20:28:51.758Z,21.58
2022-11-24T20:31:56.522Z,18.58
2022-11-24T20:35:01.793Z,22.27
2022-11-24T20:38:10.218Z,18.43
2022-11-24T20:41:25.128Z,18.20
2022-11-24T20:44:29.980Z,22.50
2022-11-24T20:47:33.449Z,23.30
2022-11-24T20:50:38.306Z,22.00
2022-11-24T20:53:42.647Z,23.50
2022-11-24T20:56:46.841Z,25.90
2022-11-24T20:59:52.420Z,21.55
2022-11-24T21:02:57.742Z,19.88
2022-11-24T21:06:02.363Z,22.33
2022-11-24T21:09:08.025Z,21.90
2022-11-24T21:12:11.529Z,21.38
2022-11-24T21:15:15.163Z,24.45
2022-11-24T21:18:19.298Z,30.42
2022-11-24T21:21:24.127Z,27.30
2022-11-24T21:24:31.003Z,26.70
2022-11-24T21:27:34.658Z,23.23
2022-11-24T21:30:38.270Z,23.58
2022-11-24T21:33:46.441Z,25.10
2022-11-24T21:36:49.976Z,22.40
2022-11-24T21:39:53.445Z,24.50
2022-11-24T21:42:59.574Z,30.35
2022-11-24T21:46:12.060Z,40.22
2022-11-24T21:49:16.066Z,42.00
2022-11-24T21:52:19.458Z,24.43
2022-11-24T21:55:22.934Z,24.60
2022-11-24T21:58:27.819Z,24.70
2022-11-24T22:01:31.312Z,25.77
2022-11-24T22:04:35.003Z,26.77
2022-11-24T22:07:38.797Z,27.00
2022-11-24T22:10:42.158Z,25.83
2022-11-24T22:13:45.818Z,24.75
2022-11-24T22:16:49.311Z,22.65
2022-11-24T22:19:52.724Z,22.67
2022-11-24T22:22:56.179Z,19.83
2022-11-24T22:26:29.099Z,23.27
2022-11-24T22:29:32.474Z,22.20
2022-11-24T22:32:36.114Z,22.75
2022-11-24T22:35:39.439Z,25.00
2022-11-24T22:38:43.706Z,21.90
2022-11-24T22:41:47.384Z,21.95
2022-11-24T22:44:50.751Z,21.92
2022-11-24T22:47:56.988Z,22.33
2022-11-24T22:51:08.824Z,25.08
2022-11-24T22:54:14.118Z,20.97
2022-11-24T22:57:17.536Z,22.95
2022-11-24T23:00:21.206Z,22.05
2022-11-24T23:03:24.677Z,23.92
2022-11-24T23:06:31.000Z,21.73
2022-11-24T23:09:34.481Z,24.07
2022-11-24T23:12:37.897Z,22.52
2022-11-24T23:15:41.331Z,26.35
2022-11-24T23:18:51.062Z,20.38
2022-11-24T23:21:57.161Z,20.92
2022-11-24T23:25:00.571Z,20.37
2022-11-24T23:28:04.100Z,22.23
2022-11-24T23:31:13.360Z,22.13
2022-11-24T23:34:16.677Z,20.90
2022-11-24T23:37:20.076Z,20.60
2022-11-24T23:40:23.611Z,20.00
2022-11-24T23:43:27.146Z,20.38
2022-11-24T23:46:31.114Z,25.13
2022-11-24T23:49:34.537Z,22.63
2022-11-24T23:52:37.977Z,21.17
2022-11-24T23:55:41.311Z,22.02
2022-11-24T23:58:45.204Z,23.00
